New Riegel, Ohio
Current Conditions -  °F | °C
As of 5:53 PM on Wednesday 26 Nov 2014 (Local Time) from KFDY Reporting Station
Overcast Overcast  
Wind Chill: 25°   Ceiling: 2500
Heat Index: 33°   Visibility: 10mi
Dew Point: 26°   Wind: 9mph
Humidity: 75%   Direction: 20°NNE
Pressure: 30.06"   Gusts: NA
Location:  41.05°N, 83.32°W
Report Text: KFDY 262253Z AUTO 02008KT 10SM SCT019 OVC025 01/M03 A3006 RMK AO2 SLP183 T00061033
Loading
Personal Weather Stations






























Interactive Weather Map New forecast layout! Learn more

10-Day Weather Forecast

Advertisements
Track Severe Weather on mobile